createdAt,value
2022-11-13T00:01:45.897Z,77.20
2022-11-13T00:04:31.490Z,77.26
2022-11-13T00:07:16.821Z,77.05
2022-11-13T00:10:01.970Z,76.87
2022-11-13T00:12:47.133Z,76.86
2022-11-13T00:15:32.659Z,76.65
2022-11-13T00:18:18.243Z,76.37
2022-11-13T00:21:16.968Z,76.44
2022-11-13T00:24:02.423Z,76.07
2022-11-13T00:26:47.706Z,76.20
2022-11-13T00:29:33.376Z,75.81
2022-11-13T00:32:20.397Z,75.47
2022-11-13T00:35:06.445Z,75.85
2022-11-13T00:37:51.620Z,76.00
2022-11-13T00:40:36.683Z,76.04
2022-11-13T00:43:22.077Z,76.00
2022-11-13T00:46:08.032Z,75.75
2022-11-13T00:48:53.304Z,75.72
2022-11-13T00:51:38.860Z,75.98
2022-11-13T00:54:24.159Z,75.82
2022-11-13T00:57:09.756Z,76.64
2022-11-13T00:59:55.070Z,76.64
2022-11-13T01:02:40.589Z,76.54
2022-11-13T01:05:26.692Z,76.91
2022-11-13T01:08:13.970Z,76.85
2022-11-13T01:10:59.505Z,76.46
2022-11-13T01:13:46.634Z,77.11
2022-11-13T01:16:32.090Z,76.62
2022-11-13T01:19:17.263Z,76.81
2022-11-13T01:22:02.824Z,77.16
2022-11-13T01:24:48.145Z,76.66
2022-11-13T01:27:36.512Z,76.75
2022-11-13T01:30:21.924Z,76.64
2022-11-13T01:33:07.227Z,76.82
2022-11-13T01:35:52.632Z,76.52
2022-11-13T01:38:38.424Z,76.56
2022-11-13T01:41:27.678Z,76.06
2022-11-13T01:44:14.840Z,75.64
2022-11-13T01:46:59.963Z,75.88
2022-11-13T01:49:46.628Z,75.55
2022-11-13T01:52:36.383Z,75.50
2022-11-13T01:55:21.640Z,75.13
2022-11-13T01:58:10.210Z,75.13
2022-11-13T02:00:55.757Z,75.61
2022-11-13T02:03:41.166Z,76.14
2022-11-13T02:06:31.048Z,75.78
2022-11-13T02:09:19.928Z,75.71
2022-11-13T02:12:07.953Z,75.71
2022-11-13T02:14:55.251Z,75.70
2022-11-13T02:17:58.987Z,75.50
2022-11-13T02:21:15.878Z,75.24
2022-11-13T02:24:29.490Z,75.52
2022-11-13T02:27:29.424Z,75.02
2022-11-13T02:30:29.956Z,75.77
2022-11-13T02:33:24.390Z,74.89
2022-11-13T02:36:11.978Z,74.77
2022-11-13T02:39:03.112Z,74.64
2022-11-13T02:41:48.182Z,74.91
2022-11-13T02:44:33.404Z,75.18
2022-11-13T02:47:18.452Z,75.22
2022-11-13T02:50:04.659Z,74.66
2022-11-13T02:52:50.054Z,74.83
2022-11-13T02:55:35.702Z,74.46
2022-11-13T02:58:20.835Z,74.93
2022-11-13T03:01:06.660Z,74.74
2022-11-13T03:03:59.079Z,75.11
2022-11-13T03:06:44.485Z,75.16
2022-11-13T03:09:30.546Z,75.26
2022-11-13T03:12:15.634Z,74.96
2022-11-13T03:15:01.423Z,75.24
2022-11-13T03:17:46.941Z,74.23
2022-11-13T03:20:32.392Z,74.17
2022-11-13T03:23:17.566Z,74.07
2022-11-13T03:26:07.511Z,73.72
2022-11-13T03:28:52.802Z,74.04
2022-11-13T03:31:38.094Z,73.56
2022-11-13T03:34:23.568Z,73.54
2022-11-13T03:37:08.811Z,73.42
2022-11-13T03:39:54.085Z,73.15
2022-11-13T03:42:39.556Z,73.30
2022-11-13T03:45:24.661Z,72.66
2022-11-13T03:48:10.128Z,72.90
2022-11-13T03:50:55.975Z,72.58
2022-11-13T03:53:41.246Z,72.66
2022-11-13T03:56:26.364Z,72.61
2022-11-13T03:59:12.029Z,72.79
2022-11-13T04:01:57.479Z,72.06
2022-11-13T04:04:42.603Z,71.65
2022-11-13T04:07:27.918Z,71.31
2022-11-13T04:10:13.981Z,71.40
2022-11-13T04:12:59.443Z,71.26
2022-11-13T04:15:44.707Z,71.90
2022-11-13T04:18:30.626Z,72.41
2022-11-13T04:21:16.082Z,72.75
2022-11-13T04:24:01.264Z,72.63
2022-11-13T04:26:46.563Z,73.00
2022-11-13T04:29:31.952Z,72.85
2022-11-13T04:32:17.337Z,72.80
2022-11-13T04:35:03.185Z,72.56
2022-11-13T04:37:48.308Z,72.66
2022-11-13T04:40:33.731Z,73.17
2022-11-13T04:43:18.946Z,73.21
2022-11-13T04:46:04.477Z,73.36
2022-11-13T04:48:49.557Z,73.54
2022-11-13T04:51:34.958Z,72.76
2022-11-13T04:54:24.315Z,72.76
2022-11-13T04:57:13.006Z,73.02
2022-11-13T04:59:58.335Z,72.85
2022-11-13T05:02:43.692Z,73.50
2022-11-13T05:05:29.736Z,72.78
2022-11-13T05:08:14.795Z,72.86
2022-11-13T05:11:00.802Z,72.55
2022-11-13T05:13:46.540Z,72.32
2022-11-13T05:16:31.914Z,72.81
2022-11-13T05:19:17.636Z,71.91
2022-11-13T05:22:03.111Z,71.80
2022-11-13T05:24:48.270Z,72.75
2022-11-13T05:27:33.532Z,72.19
2022-11-13T05:30:18.862Z,72.34
2022-11-13T05:33:04.127Z,72.55
2022-11-13T05:35:49.324Z,72.66
2022-11-13T05:38:35.477Z,72.28
2022-11-13T05:41:22.437Z,72.46
2022-11-13T05:44:07.915Z,72.42
2022-11-13T05:46:53.199Z,72.10
2022-11-13T05:49:38.603Z,73.16
2022-11-13T05:52:24.112Z,73.87
2022-11-13T05:55:09.369Z,73.77
2022-11-13T05:57:54.884Z,73.05
2022-11-13T06:00:40.251Z,74.06
2022-11-13T06:03:25.460Z,73.22
2022-11-13T06:06:14.062Z,73.78
2022-11-13T06:09:00.825Z,74.21
2022-11-13T06:11:46.103Z,73.58
2022-11-13T06:14:31.544Z,73.87
2022-11-13T06:17:16.844Z,73.96
2022-11-13T06:20:02.099Z,73.35
2022-11-13T06:22:47.384Z,73.37
2022-11-13T06:25:32.512Z,73.12
2022-11-13T06:28:17.579Z,72.88
2022-11-13T06:31:08.437Z,72.26
2022-11-13T06:33:54.248Z,72.03
2022-11-13T06:36:39.651Z,71.52
2022-11-13T06:39:24.685Z,72.20
2022-11-13T06:42:10.156Z,72.37
2022-11-13T06:44:55.316Z,71.82
2022-11-13T06:47:40.538Z,71.60
2022-11-13T06:50:25.946Z,72.27
2022-11-13T06:53:11.096Z,72.40
2022-11-13T06:55:57.139Z,72.86
2022-11-13T06:58:43.788Z,71.96
2022-11-13T07:01:29.041Z,72.62
2022-11-13T07:04:14.294Z,72.34
2022-11-13T07:06:59.536Z,72.44
2022-11-13T07:09:45.011Z,72.11
2022-11-13T07:12:30.401Z,72.64
2022-11-13T07:15:16.490Z,72.21
2022-11-13T07:18:03.406Z,72.06
2022-11-13T07:20:48.969Z,72.41
2022-11-13T07:23:37.003Z,72.61
2022-11-13T07:26:23.037Z,71.74
2022-11-13T07:29:08.449Z,71.99
2022-11-13T07:31:54.316Z,72.16
2022-11-13T07:34:39.663Z,71.69
2022-11-13T07:37:24.979Z,72.06
2022-11-13T07:40:11.260Z,71.31
2022-11-13T07:43:01.025Z,71.41
2022-11-13T07:45:46.280Z,70.60
2022-11-13T07:48:32.143Z,69.98
2022-11-13T07:51:18.119Z,70.00
2022-11-13T07:54:03.540Z,70.11
2022-11-13T07:56:49.000Z,70.25
2022-11-13T07:59:34.176Z,70.33
2022-11-13T08:02:22.311Z,70.10
2022-11-13T08:05:10.160Z,70.56
2022-11-13T08:07:55.239Z,69.84
2022-11-13T08:10:40.953Z,69.83
2022-11-13T08:13:26.144Z,69.57
2022-11-13T08:16:11.402Z,68.73
2022-11-13T08:18:56.824Z,67.33
2022-11-13T08:21:42.297Z,66.29
2022-11-13T08:24:27.671Z,62.39
2022-11-13T08:27:12.997Z,61.36
2022-11-13T08:29:58.080Z,60.48
2022-11-13T08:32:43.407Z,61.59
2022-11-13T08:35:29.727Z,63.25
2022-11-13T08:38:15.179Z,64.30
2022-11-13T08:41:07.396Z,64.78
2022-11-13T08:43:53.858Z,65.38
2022-11-13T08:46:39.200Z,66.64
2022-11-13T08:49:24.883Z,66.67
2022-11-13T08:52:10.503Z,67.17
2022-11-13T08:54:56.107Z,67.69
2022-11-13T08:57:41.667Z,67.60
2022-11-13T09:00:28.432Z,67.72
2022-11-13T09:03:13.931Z,67.96
2022-11-13T09:05:59.122Z,68.35
2022-11-13T09:08:44.525Z,68.10
2022-11-13T09:11:29.612Z,67.04
2022-11-13T09:14:15.363Z,66.83
2022-11-13T09:17:00.745Z,65.96
2022-11-13T09:19:45.917Z,65.22
2022-11-13T09:22:31.083Z,64.89
2022-11-13T09:25:16.791Z,62.19
2022-11-13T09:28:03.976Z,59.72
2022-11-13T09:30:49.132Z,56.34
2022-11-13T09:33:36.009Z,50.60
2022-11-13T09:36:21.377Z,46.12
2022-11-13T09:39:06.937Z,41.78
2022-11-13T09:41:55.046Z,39.68
2022-11-13T09:44:47.678Z,36.92
2022-11-13T09:47:44.152Z,34.31
2022-11-13T09:50:31.542Z,31.75
2022-11-13T09:53:17.835Z,30.64
2022-11-13T09:56:17.876Z,29.38
2022-11-13T09:59:39.721Z,27.46
2022-11-13T10:02:25.154Z,27.26
2022-11-13T10:05:23.513Z,26.94
2022-11-13T10:08:18.018Z,25.51
2022-11-13T10:11:22.824Z,25.46
2022-11-13T10:14:23.871Z,25.23
2022-11-13T10:17:22.020Z,24.15
2022-11-13T10:20:18.802Z,24.07
2022-11-13T10:23:28.621Z,24.11
2022-11-13T10:26:19.775Z,24.10
2022-11-13T10:29:27.196Z,23.06
2022-11-13T10:32:22.985Z,22.76
2022-11-13T10:35:38.648Z,23.94
2022-11-13T10:38:36.250Z,23.86
2022-11-13T10:41:22.101Z,23.10
2022-11-13T10:44:21.240Z,22.64
2022-11-13T10:47:15.606Z,22.58
2022-11-13T10:50:11.976Z,23.69
2022-11-13T10:52:58.191Z,23.83
2022-11-13T10:55:45.371Z,23.78
2022-11-13T10:58:31.301Z,22.23
2022-11-13T11:01:23.730Z,21.20
2022-11-13T11:04:19.618Z,20.20
2022-11-13T11:07:21.379Z,20.36
2022-11-13T11:10:21.311Z,19.45
2022-11-13T11:13:12.109Z,19.41
2022-11-13T11:16:01.652Z,19.69
2022-11-13T11:18:58.003Z,18.94
2022-11-13T11:21:44.617Z,19.75
2022-11-13T11:24:38.520Z,20.83
2022-11-13T11:27:35.121Z,21.00
2022-11-13T11:30:26.464Z,21.06
2022-11-13T11:33:50.477Z,21.79
2022-11-13T11:36:48.656Z,22.03
2022-11-13T11:39:42.386Z,20.98
2022-11-13T11:42:48.637Z,21.32
2022-11-13T11:45:39.399Z,20.45
2022-11-13T11:48:30.998Z,20.77
2022-11-13T11:51:40.740Z,21.10
2022-11-13T11:54:42.124Z,22.41
2022-11-13T11:57:51.372Z,23.61
2022-11-13T12:00:40.987Z,23.25
2022-11-13T12:03:35.659Z,25.42
2022-11-13T12:06:40.121Z,26.19
2022-11-13T12:09:31.926Z,27.21
2022-11-13T12:12:32.384Z,28.36
2022-11-13T12:16:06.020Z,29.59
2022-11-13T12:19:05.999Z,31.03
2022-11-13T12:21:54.152Z,31.93
2022-11-13T12:24:59.559Z,33.13
2022-11-13T12:27:58.503Z,33.85
2022-11-13T12:30:46.629Z,34.70
2022-11-13T12:34:04.337Z,35.05
2022-11-13T12:36:51.170Z,36.11
2022-11-13T12:39:53.974Z,35.13
2022-11-13T12:42:58.122Z,35.77
2022-11-13T12:45:54.325Z,35.65
2022-11-13T12:48:42.492Z,36.22
2022-11-13T12:51:39.600Z,36.81
2022-11-13T12:54:29.872Z,37.25
2022-11-13T12:57:18.117Z,37.66
2022-11-13T13:00:24.368Z,37.85
2022-11-13T13:03:32.652Z,36.78
2022-11-13T13:06:40.935Z,37.39
2022-11-13T13:10:03.606Z,37.30
2022-11-13T13:13:13.001Z,37.74
2022-11-13T13:16:04.417Z,37.92
2022-11-13T13:18:49.631Z,37.00
2022-11-13T13:21:43.372Z,37.10
2022-11-13T13:24:34.765Z,37.96
2022-11-13T13:27:36.686Z,37.22
2022-11-13T13:30:26.143Z,37.35
2022-11-13T13:33:30.539Z,37.99
2022-11-13T13:36:46.231Z,37.35
2022-11-13T13:40:19.162Z,37.52
2022-11-13T13:43:30.178Z,39.07
2022-11-13T13:46:29.491Z,40.20
2022-11-13T13:49:21.944Z,39.41
2022-11-13T13:52:07.259Z,40.07
2022-11-13T13:54:52.558Z,39.97
2022-11-13T13:57:42.130Z,38.79
2022-11-13T14:00:28.745Z,38.56
2022-11-13T14:03:20.278Z,39.54
2022-11-13T14:06:24.634Z,40.84
2022-11-13T14:09:16.921Z,40.77
2022-11-13T14:12:18.901Z,41.02
2022-11-13T14:15:05.845Z,39.15
2022-11-13T14:17:51.505Z,39.48
2022-11-13T14:20:47.209Z,39.83
2022-11-13T14:23:37.449Z,39.39
2022-11-13T14:26:23.096Z,37.72
2022-11-13T14:29:22.842Z,37.99
2022-11-13T14:32:16.073Z,38.37
2022-11-13T14:35:03.100Z,37.50
2022-11-13T14:37:48.713Z,37.79
2022-11-13T14:40:35.656Z,38.95
2022-11-13T14:43:26.394Z,39.84
2022-11-13T14:46:44.428Z,40.13
2022-11-13T14:49:33.125Z,40.66
2022-11-13T14:52:27.172Z,40.95
2022-11-13T14:55:29.564Z,40.92
2022-11-13T14:58:26.019Z,41.51
2022-11-13T15:01:25.315Z,40.94
2022-11-13T15:04:10.743Z,41.57
2022-11-13T15:07:00.091Z,40.43
2022-11-13T15:09:47.393Z,40.76
2022-11-13T15:12:32.705Z,41.09
2022-11-13T15:15:25.145Z,41.69
2022-11-13T15:18:16.973Z,41.58
2022-11-13T15:21:02.254Z,42.15
2022-11-13T15:23:47.489Z,41.54
2022-11-13T15:26:32.810Z,42.47
2022-11-13T15:29:17.972Z,42.60
2022-11-13T15:32:03.629Z,41.83
2022-11-13T15:34:48.788Z,42.91
2022-11-13T15:37:33.950Z,41.67
2022-11-13T15:40:19.125Z,42.44
2022-11-13T15:43:04.582Z,42.16
2022-11-13T15:45:49.725Z,41.73
2022-11-13T15:48:35.017Z,42.40
2022-11-13T15:51:35.572Z,42.77
2022-11-13T15:54:33.060Z,42.63
2022-11-13T15:57:21.738Z,43.28
2022-11-13T16:00:13.917Z,43.75
2022-11-13T16:02:59.298Z,44.23
2022-11-13T16:05:44.902Z,44.74
2022-11-13T16:08:30.369Z,45.21
2022-11-13T16:11:17.630Z,45.20
2022-11-13T16:14:03.058Z,45.51
2022-11-13T16:16:50.486Z,45.89
2022-11-13T16:19:37.595Z,46.07
2022-11-13T16:22:25.451Z,45.91
2022-11-13T16:25:13.663Z,46.65
2022-11-13T16:27:59.491Z,47.05
2022-11-13T16:30:48.225Z,47.35
2022-11-13T16:33:33.547Z,46.95
2022-11-13T16:36:21.350Z,46.89
2022-11-13T16:39:16.903Z,47.60
2022-11-13T16:42:02.321Z,48.09
2022-11-13T16:44:47.448Z,48.32
2022-11-13T16:47:32.712Z,48.55
2022-11-13T16:50:26.817Z,49.35
2022-11-13T16:53:11.952Z,49.34
2022-11-13T16:55:57.091Z,49.62
2022-11-13T16:58:45.155Z,50.05
2022-11-13T17:01:30.553Z,50.84
2022-11-13T17:04:15.724Z,51.08
2022-11-13T17:07:01.118Z,51.72
2022-11-13T17:09:47.956Z,51.43
2022-11-13T17:12:37.805Z,51.80
2022-11-13T17:15:23.139Z,51.69
2022-11-13T17:18:10.458Z,52.05
2022-11-13T17:20:56.124Z,52.23
2022-11-13T17:23:41.255Z,52.75
2022-11-13T17:26:27.169Z,53.05
2022-11-13T17:29:12.691Z,54.13
2022-11-13T17:31:58.329Z,53.75
2022-11-13T17:34:43.870Z,54.53
2022-11-13T17:37:28.933Z,55.46
2022-11-13T17:40:14.593Z,55.48
2022-11-13T17:42:59.718Z,55.10
2022-11-13T17:45:50.711Z,55.95
2022-11-13T17:48:36.372Z,55.56
2022-11-13T17:51:21.934Z,56.01
2022-11-13T17:54:07.073Z,56.22
2022-11-13T17:56:52.485Z,56.35
2022-11-13T17:59:37.685Z,56.52
2022-11-13T18:02:22.848Z,56.81
2022-11-13T18:05:09.836Z,56.62
2022-11-13T18:07:55.199Z,56.79
2022-11-13T18:10:41.941Z,56.94
2022-11-13T18:13:27.783Z,57.22
2022-11-13T18:16:18.846Z,57.11
2022-11-13T18:19:06.921Z,57.57
2022-11-13T18:21:52.078Z,57.48
2022-11-13T18:24:37.305Z,58.29
2022-11-13T18:27:22.984Z,58.39
2022-11-13T18:30:08.728Z,58.22
2022-11-13T18:32:53.880Z,58.87
2022-11-13T18:35:39.596Z,58.75
2022-11-13T18:38:24.750Z,59.08
2022-11-13T18:41:15.512Z,59.34
2022-11-13T18:44:01.024Z,59.46
2022-11-13T18:46:45.982Z,59.86
2022-11-13T18:49:31.647Z,60.17
2022-11-13T18:52:16.692Z,59.88
2022-11-13T18:55:02.123Z,59.63
2022-11-13T18:57:47.295Z,60.24
2022-11-13T19:00:32.827Z,60.17
2022-11-13T19:03:17.887Z,60.14
2022-11-13T19:06:06.431Z,60.49
2022-11-13T19:09:00.610Z,60.05
2022-11-13T19:11:46.345Z,60.41
2022-11-13T19:14:31.842Z,60.74
2022-11-13T19:17:17.080Z,60.75
2022-11-13T19:20:02.414Z,60.67
2022-11-13T19:22:47.905Z,60.98
2022-11-13T19:25:33.407Z,61.17
2022-11-13T19:28:18.732Z,60.91
2022-11-13T19:31:12.787Z,61.76
2022-11-13T19:34:00.086Z,62.39
2022-11-13T19:36:47.792Z,62.29
2022-11-13T19:39:32.999Z,62.00
2022-11-13T19:42:18.211Z,62.40
2022-11-13T19:45:03.344Z,62.57
2022-11-13T19:47:48.572Z,62.45
2022-11-13T19:50:34.059Z,62.55
2022-11-13T19:53:19.122Z,62.41
2022-11-13T19:56:05.875Z,62.45
2022-11-13T19:58:52.327Z,62.85
2022-11-13T20:01:37.841Z,62.91
2022-11-13T20:04:23.243Z,63.14
2022-11-13T20:07:11.164Z,63.67
2022-11-13T20:09:56.469Z,63.41
2022-11-13T20:12:41.745Z,63.14
2022-11-13T20:15:28.084Z,63.94
2022-11-13T20:18:14.301Z,63.78
2022-11-13T20:21:00.320Z,64.04
2022-11-13T20:23:46.574Z,64.08
2022-11-13T20:26:32.005Z,63.97
2022-11-13T20:29:17.259Z,64.32
2022-11-13T20:32:02.917Z,64.28
2022-11-13T20:34:48.053Z,64.38
2022-11-13T20:37:34.240Z,64.43
2022-11-13T20:40:19.437Z,64.68
2022-11-13T20:43:04.867Z,64.63
2022-11-13T20:45:50.225Z,64.72
2022-11-13T20:48:35.630Z,64.38
2022-11-13T20:51:24.296Z,64.29
2022-11-13T20:54:10.038Z,64.30
2022-11-13T20:56:55.396Z,64.15
2022-11-13T20:59:40.573Z,64.45
2022-11-13T21:02:25.718Z,64.62
2022-11-13T21:05:11.512Z,64.29
2022-11-13T21:07:56.620Z,65.08
2022-11-13T21:10:42.002Z,65.68
2022-11-13T21:13:29.264Z,66.35
2022-11-13T21:16:16.032Z,66.79
2022-11-13T21:19:02.535Z,67.66
2022-11-13T21:21:47.663Z,68.06
2022-11-13T21:24:33.033Z,68.56
2022-11-13T21:27:18.468Z,68.74
2022-11-13T21:30:04.158Z,68.73
2022-11-13T21:32:49.564Z,69.01
2022-11-13T21:35:35.111Z,68.76
2022-11-13T21:38:20.519Z,69.29
2022-11-13T21:41:24.396Z,69.87
2022-11-13T21:44:10.725Z,69.53
2022-11-13T21:46:56.435Z,69.72
2022-11-13T21:49:42.318Z,69.76
2022-11-13T21:52:28.508Z,69.70
2022-11-13T21:55:13.999Z,69.79
2022-11-13T21:57:59.437Z,69.78
2022-11-13T22:00:44.902Z,69.51
2022-11-13T22:03:30.672Z,69.86
2022-11-13T22:06:24.624Z,69.46
2022-11-13T22:09:14.299Z,68.92
2022-11-13T22:11:59.378Z,69.04
2022-11-13T22:14:44.843Z,69.21
2022-11-13T22:17:30.049Z,69.83
2022-11-13T22:20:15.599Z,69.89
2022-11-13T22:23:00.827Z,69.55
2022-11-13T22:25:46.709Z,69.89
2022-11-13T22:28:33.763Z,69.68
2022-11-13T22:31:22.266Z,69.80
2022-11-13T22:34:07.506Z,70.00
2022-11-13T22:36:52.799Z,70.49
2022-11-13T22:39:38.274Z,71.03
2022-11-13T22:42:23.463Z,70.68
2022-11-13T22:45:22.811Z,70.69
2022-11-13T22:48:10.782Z,71.27
2022-11-13T22:50:56.799Z,71.32
2022-11-13T22:53:47.207Z,70.50
2022-11-13T22:56:34.262Z,70.14
2022-11-13T22:59:19.602Z,70.45
2022-11-13T23:02:04.913Z,69.95
2022-11-13T23:04:50.124Z,70.08
2022-11-13T23:07:35.590Z,70.03
2022-11-13T23:10:20.939Z,70.23
2022-11-13T23:13:06.792Z,70.33
2022-11-13T23:15:52.054Z,70.27
2022-11-13T23:18:38.453Z,71.37
2022-11-13T23:21:25.193Z,71.55
2022-11-13T23:24:11.168Z,72.11
2022-11-13T23:26:56.546Z,71.99
2022-11-13T23:29:45.906Z,72.27
2022-11-13T23:32:34.286Z,71.78
2022-11-13T23:35:19.345Z,72.04
2022-11-13T23:38:04.541Z,71.78
2022-11-13T23:40:57.577Z,71.74
2022-11-13T23:46:48.305Z,71.47
2022-11-13T23:49:33.690Z,71.64
2022-11-13T23:52:19.042Z,71.60
2022-11-13T23:55:04.722Z,71.30
2022-11-13T23:58:00.838Z,71.09
